Time;durP1;ratioP1;P1;durP2;ratioP2;P2;SDS_P1;SDS_P2;PMS_P1;PMS_P2;Temp;Humidity;BMP_temperature;BMP_pressure;BME280_temperature;BME280_humidity;BME280_pressure;Samples;Min_cycle;Max_cycle;Signal;HPM_P1;HPM_P2
2022/01/13 00:00:59;;;;;;;267.75;49.63;;;4.40;99.90;;;;;;5015200;28;20572;-82
2022/01/13 00:03:24;;;;;;;300.90;52.88;;;4.40;99.90;;;;;;5031849;28;20048;-82
2022/01/13 00:05:50;;;;;;;388.90;57.15;;;4.40;99.90;;;;;;4982735;28;20038;-82
2022/01/13 00:08:16;;;;;;;348.05;54.33;;;4.40;99.90;;;;;;4999144;28;20049;-82
2022/01/13 00:10:42;;;;;;;479.33;58.38;;;4.50;99.90;;;;;;4982300;28;20104;-82
2022/01/13 00:13:10;;;;;;;327.80;54.67;;;4.40;99.90;;;;;;5032091;28;20037;-81
2022/01/13 00:15:49;;;;;;;323.52;54.25;;;4.50;99.90;;;;;;5015073;28;20052;-81
2022/01/13 00:18:18;;;;;;;393.17;53.95;;;4.40;99.90;;;;;;5032223;28;20042;-81
2022/01/13 00:21:10;;;;;;;428.17;56.28;;;4.40;99.90;;;;;;5015007;28;20045;-81
2022/01/13 00:23:49;;;;;;;518.88;55.30;;;4.50;99.90;;;;;;5031703;28;20464;-81
2022/01/13 00:26:24;;;;;;;329.67;52.87;;;4.50;99.90;;;;;;5016903;28;20045;-81
2022/01/13 00:28:52;;;;;;;765.35;65.55;;;4.40;99.90;;;;;;5015450;28;20041;-81
2022/01/13 00:31:30;;;;;;;313.70;49.30;;;4.40;99.90;;;;;;5031740;28;20049;-81
2022/01/13 00:33:59;;;;;;;309.77;51.08;;;4.40;99.90;;;;;;5031735;28;20049;-81
2022/01/13 00:36:28;;;;;;;341.05;50.22;;;4.80;99.90;;;;;;5015096;28;20049;-81
2022/01/13 00:38:54;;;;;;;482.30;51.38;;;4.40;99.90;;;;;;5015395;28;20038;-81
2022/01/13 00:41:20;;;;;;;568.33;55.65;;;4.50;99.90;;;;;;5030800;28;20042;-81
2022/01/13 00:43:47;;;;;;;628.15;57.83;;;4.50;99.90;;;;;;4999149;28;20083;-81
2022/01/13 00:46:21;;;;;;;482.30;50.17;;;5.10;99.90;;;;;;5015527;28;20048;-81
2022/01/13 00:48:48;;;;;;;389.27;48.53;;;4.50;99.90;;;;;;5000073;28;20075;-81
2022/01/13 00:51:14;;;;;;;572.38;53.80;;;4.50;99.90;;;;;;4998996;28;20037;-81
2022/01/13 00:53:40;;;;;;;533.35;53.13;;;4.50;99.90;;;;;;5031623;28;20057;-81
2022/01/13 00:56:05;;;;;;;469.52;49.92;;;4.50;99.90;;;;;;5014106;28;20452;-81
2022/01/13 00:58:34;;;;;;;700.38;55.25;;;5.00;99.90;;;;;;5016168;28;20045;-81
2022/01/13 01:01:01;;;;;;;328.58;48.20;;;4.50;99.90;;;;;;5018681;28;20044;-81
2022/01/13 01:03:28;;;;;;;440.63;47.15;;;4.60;99.90;;;;;;5018558;28;20037;-81
2022/01/13 01:05:54;;;;;;;509.13;48.60;;;4.50;99.90;;;;;;5035151;28;20053;-81
2022/01/13 01:08:20;;;;;;;338.75;48.42;;;4.50;99.90;;;;;;5035164;28;20056;-81
2022/01/13 01:10:49;;;;;;;337.75;46.75;;;4.60;99.90;;;;;;5034045;28;20045;-81
2022/01/13 01:13:20;;;;;;;373.50;46.00;;;4.50;99.90;;;;;;5019073;28;20041;-81
2022/01/13 01:15:50;;;;;;;344.10;43.50;;;4.60;99.90;;;;;;5034990;28;20056;-81
2022/01/13 01:28:59;;;;;;;463.38;50.60;;;4.60;99.90;;;;;;5034878;28;20133;-81
2022/01/13 01:31:30;;;;;;;313.30;45.08;;;4.60;99.90;;;;;;5034836;28;20400;-81
2022/01/13 01:36:41;;;;;;;562.65;49.35;;;4.60;99.90;;;;;;5034230;28;20041;-81
2022/01/13 01:39:08;;;;;;;368.35;45.67;;;4.70;99.90;;;;;;5018117;28;20041;-81
2022/01/13 01:41:40;;;;;;;368.85;45.88;;;4.60;99.90;;;;;;5033813;28;20037;-81
2022/01/13 01:44:34;;;;;;;428.33;46.60;;;4.60;99.90;;;;;;5034757;28;20477;-81
2022/01/13 01:47:01;;;;;;;460.77;46.25;;;4.60;99.90;;;;;;5036967;28;20144;-81
2022/01/13 01:49:28;;;;;;;251.52;41.08;;;4.60;99.90;;;;;;5021155;28;20099;-81
2022/01/13 01:51:59;;;;;;;393.80;44.80;;;4.70;99.90;;;;;;4988545;28;20127;-81
2022/01/13 01:54:28;;;;;;;238.77;39.33;;;4.60;99.90;;;;;;5021471;28;20103;-81
2022/01/13 01:56:55;;;;;;;235.27;38.28;;;4.70;99.90;;;;;;5003050;28;20041;-81
2022/01/13 01:59:28;;;;;;;262.23;38.55;;;4.70;99.90;;;;;;4988549;28;20041;-81
2022/01/13 02:01:54;;;;;;;218.25;36.80;;;4.70;99.90;;;;;;5020756;28;20052;-81
2022/01/13 02:04:21;;;;;;;261.95;37.60;;;4.70;99.90;;;;;;5004741;28;20437;-81
2022/01/13 02:06:47;;;;;;;262.63;37.28;;;4.70;99.90;;;;;;5020607;28;20045;-81
2022/01/13 02:09:16;;;;;;;238.82;37.58;;;4.80;99.90;;;;;;5020824;28;20044;-81
2022/01/13 02:11:44;;;;;;;210.45;34.60;;;4.80;99.90;;;;;;4988282;28;20033;-81
2022/01/13 02:14:32;;;;;;;225.02;36.67;;;4.80;99.90;;;;;;5020978;28;20053;-81
2022/01/13 02:17:13;;;;;;;217.15;36.50;;;4.80;99.90;;;;;;5023111;28;20044;-81
2022/01/13 02:19:42;;;;;;;261.92;38.15;;;4.90;99.90;;;;;;5037493;28;20483;-81
2022/01/13 02:22:08;;;;;;;243.38;35.55;;;5.00;99.90;;;;;;5037056;28;20473;-81
2022/01/13 02:24:35;;;;;;;204.68;34.88;;;4.90;99.90;;;;;;5004659;28;20411;-81
2022/01/13 02:27:03;;;;;;;218.30;34.95;;;4.90;99.90;;;;;;5019993;28;20037;-81
2022/01/13 02:29:28;;;;;;;203.70;33.65;;;5.00;99.90;;;;;;5037016;28;20049;-81
2022/01/13 02:31:54;;;;;;;196.63;32.95;;;4.90;99.90;;;;;;4987968;28;20090;-81
2022/01/13 02:34:20;;;;;;;196.40;33.95;;;5.00;99.90;;;;;;5020713;28;20127;-81
2022/01/13 02:36:49;;;;;;;282.38;38.42;;;5.00;99.90;;;;;;5020039;28;20045;-81
2022/01/13 02:39:15;;;;;;;268.00;35.28;;;5.00;99.90;;;;;;5036813;28;20040;-81
2022/01/13 02:41:41;;;;;;;227.20;35.17;;;5.10;99.90;;;;;;5003164;28;20575;-81
2022/01/13 02:44:14;;;;;;;222.35;35.92;;;5.10;99.90;;;;;;5020113;28;20124;-81
2022/01/13 02:49:12;;;;;;;246.27;35.58;;;5.10;99.90;;;;;;5019972;28;20127;-81
2022/01/13 02:51:39;;;;;;;235.38;32.08;;;5.10;99.90;;;;;;5020189;28;20428;-81
2022/01/13 02:54:06;;;;;;;325.58;38.28;;;5.10;99.90;;;;;;5020155;28;20045;-81
2022/01/13 02:56:32;;;;;;;291.42;36.78;;;5.10;99.90;;;;;;5018893;28;20080;-81
2022/01/13 02:58:58;;;;;;;217.20;33.75;;;5.00;99.90;;;;;;5020051;28;20040;-81
2022/01/13 03:01:24;;;;;;;247.30;36.00;;;5.10;99.90;;;;;;5019950;28;20155;-81
2022/01/13 03:03:50;;;;;;;209.82;31.88;;;5.10;99.90;;;;;;5000411;28;20508;-81
2022/01/13 03:06:32;;;;;;;415.42;39.55;;;5.10;99.90;;;;;;5000520;28;20400;-82
2022/01/13 03:08:59;;;;;;;359.38;40.60;;;5.10;99.90;;;;;;5016772;28;20411;-81
2022/01/13 03:11:32;;;;;;;268.95;37.03;;;5.00;99.90;;;;;;4999222;28;20079;-81
2022/01/13 03:13:57;;;;;;;246.43;34.92;;;5.00;99.90;;;;;;5000328;28;20432;-81
2022/01/13 03:16:24;;;;;;;217.70;35.70;;;5.00;99.90;;;;;;4999771;28;20045;-81
2022/01/13 03:18:49;;;;;;;204.85;35.78;;;5.00;99.90;;;;;;4999953;28;20053;-81
2022/01/13 03:21:15;;;;;;;330.02;37.40;;;5.00;99.90;;;;;;4999044;28;20041;-81
2022/01/13 03:23:42;;;;;;;318.52;37.90;;;5.10;99.90;;;;;;5000088;28;20125;-81
2022/01/13 03:26:08;;;;;;;186.45;33.65;;;5.00;99.90;;;;;;4998576;28;20080;-81
2022/01/13 03:28:51;;;;;;;262.85;35.42;;;5.00;99.90;;;;;;4999820;28;20111;-81
2022/01/13 03:31:19;;;;;;;263.40;34.13;;;5.00;99.90;;;;;;5001920;28;20055;-81
2022/01/13 03:33:44;;;;;;;398.67;38.40;;;5.10;99.90;;;;;;4999712;28;20095;-81
2022/01/13 03:36:10;;;;;;;392.25;40.90;;;5.00;99.90;;;;;;4983161;28;20481;-81
2022/01/13 03:38:36;;;;;;;219.13;33.33;;;5.00;99.90;;;;;;4999598;28;20034;-81
2022/01/13 03:41:03;;;;;;;336.85;34.90;;;5.00;99.90;;;;;;5014679;28;20121;-81
2022/01/13 03:43:29;;;;;;;239.18;31.90;;;5.00;99.90;;;;;;5016121;28;20504;-81
2022/01/13 03:45:55;;;;;;;278.73;34.97;;;5.00;99.90;;;;;;5015496;28;20045;-81
2022/01/13 03:48:21;;;;;;;335.00;35.95;;;5.10;99.90;;;;;;5015513;28;20424;-81
2022/01/13 03:50:47;;;;;;;242.77;32.08;;;5.00;99.90;;;;;;4999503;28;20132;-81
2022/01/13 03:53:28;;;;;;;253.13;32.78;;;5.00;99.90;;;;;;5002612;28;20548;-81
2022/01/13 03:56:18;;;;;;;212.60;31.08;;;5.10;99.90;;;;;;5034455;28;20083;-81
2022/01/13 03:59:05;;;;;;;350.20;36.92;;;5.00;99.90;;;;;;5019231;28;20106;-81
2022/01/13 04:01:59;;;;;;;183.60;31.52;;;5.10;99.90;;;;;;5018716;28;20033;-81
2022/01/13 04:04:26;;;;;;;224.02;30.45;;;5.00;99.90;;;;;;5035591;28;20033;-81
2022/01/13 04:07:08;;;;;;;352.42;35.35;;;5.00;99.90;;;;;;5002648;28;20492;-81
2022/01/13 04:09:34;;;;;;;340.75;35.63;;;5.00;99.90;;;;;;5019242;28;20500;-81
2022/01/13 04:12:03;;;;;;;210.52;29.95;;;5.00;99.90;;;;;;5017664;28;20099;-81
2022/01/13 04:14:37;;;;;;;238.30;32.50;;;5.00;99.90;;;;;;5036266;28;20044;-81
2022/01/13 04:17:03;;;;;;;430.08;37.55;;;5.00;99.90;;;;;;5018769;28;20041;-81
2022/01/13 04:19:29;;;;;;;198.52;30.48;;;5.00;99.90;;;;;;5002559;28;20124;-81
2022/01/13 04:21:55;;;;;;;193.32;31.13;;;5.00;99.90;;;;;;4985743;28;20119;-81
2022/01/13 04:24:21;;;;;;;399.08;37.08;;;5.00;99.90;;;;;;5018850;28;20091;-81
2022/01/13 04:26:47;;;;;;;305.55;34.72;;;4.90;99.90;;;;;;5018033;28;20041;-81
2022/01/13 04:31:41;;;;;;;264.42;33.67;;;5.60;99.90;;;;;;5034828;28;20049;-81
2022/01/13 04:34:07;;;;;;;209.65;29.95;;;4.90;99.90;;;;;;5037260;28;20045;-81
2022/01/13 04:36:33;;;;;;;337.15;35.80;;;4.90;99.90;;;;;;5022288;28;20049;-81
2022/01/13 04:38:58;;;;;;;166.65;29.95;;;4.90;99.90;;;;;;5006695;28;20090;-81
2022/01/13 04:41:31;;;;;;;367.60;37.17;;;4.90;99.90;;;;;;5038207;28;20040;-81
2022/01/13 04:43:56;;;;;;;;;;;4.90;99.90;;;;;;5023885;28;20048;-81
2022/01/13 04:46:22;;;;;;;153.57;28.52;;;4.90;99.90;;;;;;5038803;28;20389;-81
2022/01/13 04:48:48;;;;;;;174.00;28.95;;;4.90;99.90;;;;;;5005933;28;20107;-81
2022/01/13 04:51:14;;;;;;;166.80;27.25;;;4.90;99.90;;;;;;5022104;28;20496;-81
2022/01/13 04:53:40;;;;;;;115.25;26.40;;;4.90;99.90;;;;;;5005934;28;20044;-81
2022/01/13 04:56:11;;;;;;;147.80;27.10;;;4.80;99.90;;;;;;5037783;28;20455;-81
2022/01/13 04:58:37;;;;;;;131.43;26.43;;;4.90;99.90;;;;;;5007016;28;20507;-81
2022/01/13 05:01:04;;;;;;;120.97;25.98;;;4.80;99.90;;;;;;5022124;28;20504;-81
2022/01/13 05:03:30;;;;;;;114.82;24.27;;;4.80;99.90;;;;;;5005813;28;20047;-81
2022/01/13 05:05:55;;;;;;;128.32;25.20;;;4.90;99.90;;;;;;4990199;28;20041;-82
2022/01/13 05:08:21;;;;;;;119.80;26.08;;;4.90;99.90;;;;;;5022022;28;20049;-81
2022/01/13 05:10:47;;;;;;;238.82;32.28;;;4.90;99.90;;;;;;5021085;28;20123;-81
2022/01/13 05:13:13;;;;;;;130.65;26.13;;;4.80;99.90;;;;;;5002313;28;20045;-81
2022/01/13 05:15:42;;;;;;;120.93;26.92;;;4.80;99.90;;;;;;5034890;28;20042;-81
2022/01/13 05:21:04;;;;;;;214.48;31.55;;;4.80;99.90;;;;;;5034948;28;20486;-81
2022/01/13 05:23:27;;;;;;;113.57;25.15;;;4.80;99.90;;;;;;5005166;28;20054;-81
2022/01/13 05:25:53;;;;;;;136.68;27.92;;;4.70;99.90;;;;;;5033726;28;20420;-81
2022/01/13 05:28:19;;;;;;;177.57;31.40;;;4.80;99.90;;;;;;4986134;28;20053;-81
2022/01/13 05:30:44;;;;;;;106.68;27.27;;;4.80;99.90;;;;;;4969289;28;20100;-81
2022/01/13 05:33:10;;;;;;;147.63;28.83;;;4.80;99.90;;;;;;5001975;28;20179;-81
2022/01/13 05:35:36;;;;;;;234.18;33.08;;;4.80;99.90;;;;;;5034651;28;20106;-81
2022/01/13 05:38:06;;;;;;;132.93;29.45;;;4.70;99.90;;;;;;4985779;28;20124;-81
2022/01/13 05:40:34;;;;;;;127.63;28.85;;;4.70;99.90;;;;;;5024383;28;20064;-81
2022/01/13 05:43:00;;;;;;;217.30;32.58;;;4.70;99.90;;;;;;5054422;28;20508;-81
2022/01/13 05:45:28;;;;;;;107.00;27.52;;;4.80;99.90;;;;;;5020747;28;20130;-81
2022/01/13 05:47:55;;;;;;;120.45;26.17;;;4.80;99.90;;;;;;5015748;28;20049;-81
2022/01/13 05:50:21;;;;;;;124.53;29.33;;;4.80;99.90;;;;;;5027202;28;20401;-81
2022/01/13 05:52:47;;;;;;;144.02;29.92;;;4.80;99.90;;;;;;5015836;28;20051;-82
2022/01/13 05:55:14;;;;;;;113.43;27.95;;;4.70;99.90;;;;;;5016442;28;20076;-81
2022/01/13 05:57:40;;;;;;;127.57;27.85;;;4.70;99.90;;;;;;5032412;28;20041;-81
2022/01/13 06:00:09;;;;;;;105.65;26.75;;;4.70;99.90;;;;;;4996602;28;20037;-81
2022/01/13 06:02:35;;;;;;;113.38;26.42;;;4.70;99.90;;;;;;5008996;28;20065;-81
2022/01/13 06:05:01;;;;;;;198.02;32.55;;;4.70;99.90;;;;;;4998621;28;20061;-82
2022/01/13 06:07:26;;;;;;;145.93;29.17;;;4.70;99.90;;;;;;5032646;28;20038;-82
2022/01/13 06:09:52;;;;;;;113.13;28.48;;;4.80;99.90;;;;;;5000249;28;20037;-82
2022/01/13 06:12:20;;;;;;;179.65;31.70;;;4.70;99.90;;;;;;5015458;28;20045;-82
2022/01/13 06:14:45;;;;;;;129.60;30.27;;;4.70;99.90;;;;;;5016751;28;20515;-82
2022/01/13 06:17:11;;;;;;;136.48;29.52;;;4.60;99.90;;;;;;5015768;28;20038;-82
2022/01/13 06:19:37;;;;;;;130.43;29.92;;;5.30;99.90;;;;;;5000100;28;20041;-82
2022/01/13 06:22:03;;;;;;;141.88;29.85;;;4.60;99.90;;;;;;5013897;28;20131;-82
2022/01/13 06:24:29;;;;;;;171.32;32.75;;;4.60;99.90;;;;;;4996821;28;20109;-81
2022/01/13 06:26:54;;;;;;;124.78;29.08;;;4.70;99.90;;;;;;5028803;28;20041;-81
2022/01/13 06:29:20;;;;;;;128.18;29.77;;;4.60;99.90;;;;;;5014597;28;20528;-81
2022/01/13 06:31:46;;;;;;;104.95;28.88;;;4.60;99.90;;;;;;4995130;28;20037;-81
2022/01/13 06:34:12;;;;;;;199.45;32.08;;;4.60;99.90;;;;;;5012853;28;20386;-81
2022/01/13 06:36:37;;;;;;;127.60;29.77;;;4.60;99.90;;;;;;5006904;28;20034;-81
2022/01/13 06:39:03;;;;;;;161.30;29.67;;;4.70;99.90;;;;;;5028284;28;20049;-81
2022/01/13 06:41:29;;;;;;;108.28;27.38;;;4.60;99.90;;;;;;5011579;28;20519;-81
2022/01/13 06:43:54;;;;;;;115.20;27.77;;;4.60;99.90;;;;;;4981763;28;20041;-81
2022/01/13 06:46:20;;;;;;;124.45;28.08;;;4.60;99.90;;;;;;4997710;28;20540;-81
2022/01/13 06:48:46;;;;;;;113.80;26.50;;;4.70;99.90;;;;;;4976281;28;1116541;-81
2022/01/13 06:51:12;;;;;;;166.95;28.92;;;4.60;99.90;;;;;;5002779;28;20394;-81
2022/01/13 06:53:38;;;;;;;128.00;27.77;;;4.60;99.90;;;;;;5030124;28;20045;-82
2022/01/13 06:56:05;;;;;;;103.60;25.83;;;4.60;99.90;;;;;;5018545;28;20415;-82
2022/01/13 06:58:31;;;;;;;97.05;26.05;;;4.60;99.90;;;;;;5031219;28;20041;-82
2022/01/13 07:00:56;;;;;;;165.38;30.38;;;4.60;99.90;;;;;;5015238;28;20037;-82
2022/01/13 07:03:22;;;;;;;110.63;27.92;;;4.60;99.90;;;;;;5007380;28;20042;-82
2022/01/13 07:05:48;;;;;;;218.45;33.45;;;4.60;99.90;;;;;;5013769;28;20129;-81
2022/01/13 07:08:14;;;;;;;120.45;26.52;;;4.60;99.90;;;;;;5015195;28;20408;-81
2022/01/13 07:10:40;;;;;;;170.20;30.17;;;5.40;99.90;;;;;;5014738;28;20056;-81
2022/01/13 07:13:07;;;;;;;110.32;26.17;;;4.60;99.90;;;;;;5015281;28;20037;-81
2022/01/13 07:15:33;;;;;;;112.40;26.55;;;4.60;99.90;;;;;;5021135;28;20502;-81
2022/01/13 07:18:00;;;;;;;186.20;30.30;;;4.60;99.90;;;;;;5015192;28;20033;-81
2022/01/13 07:20:27;;;;;;;129.85;25.88;;;4.60;99.90;;;;;;5011004;28;20037;-81
2022/01/13 07:22:53;;;;;;;139.32;28.13;;;4.60;99.90;;;;;;5011661;28;20033;-81
2022/01/13 07:25:19;;;;;;;132.68;27.88;;;4.60;99.90;;;;;;5011518;28;20045;-81
2022/01/13 07:27:44;;;;;;;148.52;26.33;;;4.60;99.90;;;;;;5015161;28;20100;-81
2022/01/13 07:30:11;;;;;;;120.15;26.65;;;4.60;99.90;;;;;;5028828;28;20069;-81
2022/01/13 07:32:38;;;;;;;109.03;26.20;;;4.60;99.90;;;;;;5032506;28;20045;-81
2022/01/13 07:35:04;;;;;;;119.53;26.95;;;4.60;99.90;;;;;;4999572;28;20084;-81
2022/01/13 07:37:30;;;;;;;229.98;31.77;;;4.60;99.90;;;;;;4996134;28;20453;-81
2022/01/13 07:39:55;;;;;;;181.07;30.67;;;4.60;99.90;;;;;;5013772;28;20045;-81
2022/01/13 07:42:23;;;;;;;172.65;31.30;;;4.60;99.90;;;;;;5028560;28;20485;-81
2022/01/13 07:44:49;;;;;;;123.55;28.00;;;4.60;99.90;;;;;;4985857;28;20041;-81
2022/01/13 07:47:15;;;;;;;120.10;27.33;;;4.60;99.90;;;;;;5017035;28;20412;-81
2022/01/13 07:49:41;;;;;;;134.32;29.52;;;4.60;99.90;;;;;;5017932;28;20124;-81
2022/01/13 07:52:07;;;;;;;127.15;28.73;;;4.60;99.90;;;;;;5017842;28;20045;-81
2022/01/13 07:54:32;;;;;;;120.63;26.45;;;4.60;99.90;;;;;;5018863;28;20102;-81
2022/01/13 07:56:59;;;;;;;114.47;28.23;;;4.70;99.90;;;;;;5001590;28;20041;-81
2022/01/13 07:59:28;;;;;;;134.88;29.13;;;4.70;99.90;;;;;;5018903;28;20037;-81
2022/01/13 08:02:00;;;;;;;123.88;28.13;;;4.70;99.90;;;;;;5018856;28;20041;-81
2022/01/13 08:04:26;;;;;;;140.85;27.83;;;4.70;99.90;;;;;;5018987;28;20037;-81
2022/01/13 08:06:52;;;;;;;95.85;26.08;;;4.70;99.90;;;;;;5035126;28;20500;-81
2022/01/13 08:09:18;;;;;;;109.60;26.83;;;4.70;99.90;;;;;;5035596;28;20048;-81
2022/01/13 08:11:45;;;;;;;105.78;26.35;;;4.70;99.90;;;;;;5034049;28;20105;-81
2022/01/13 08:14:11;;;;;;;95.30;25.02;;;4.70;99.90;;;;;;5018729;28;20079;-81
2022/01/13 08:16:41;;;;;;;114.25;27.30;;;4.80;99.90;;;;;;5002137;28;20461;-81
2022/01/13 08:21:50;;;;;;;112.72;28.02;;;4.80;99.90;;;;;;5034888;28;20079;-81
2022/01/13 08:24:16;;;;;;;102.28;26.25;;;4.80;99.90;;;;;;5031473;28;20072;-81
2022/01/13 08:26:42;;;;;;;103.80;27.63;;;4.80;99.90;;;;;;4997860;28;20515;-81
2022/01/13 08:29:07;;;;;;;128.55;29.20;;;4.80;99.90;;;;;;4998916;28;20041;-81
2022/01/13 08:31:33;;;;;;;114.75;28.40;;;4.80;99.90;;;;;;4982653;28;20489;-81
2022/01/13 08:33:59;;;;;;;110.78;26.92;;;4.90;99.90;;;;;;4998971;28;20037;-81
2022/01/13 08:36:25;;;;;;;112.55;26.42;;;4.90;99.90;;;;;;5014877;28;20037;-81
2022/01/13 08:38:51;;;;;;;120.63;28.75;;;4.90;99.90;;;;;;4999235;28;20405;-81
2022/01/13 08:41:17;;;;;;;165.48;31.55;;;4.90;99.90;;;;;;4998127;28;20033;-81
2022/01/13 08:43:42;;;;;;;114.38;27.52;;;4.90;99.90;;;;;;4998913;28;20045;-81
2022/01/13 08:46:08;;;;;;;112.22;28.17;;;4.90;99.90;;;;;;4982210;28;20038;-81
2022/01/13 08:48:35;;;;;;;136.98;29.15;;;4.90;99.90;;;;;;4993162;28;20065;-81
2022/01/13 08:51:02;;;;;;;114.20;28.05;;;4.90;99.90;;;;;;5011648;28;20045;-81
2022/01/13 08:53:27;;;;;;;100.60;25.23;;;5.00;99.90;;;;;;5011933;28;20052;-81
2022/01/13 08:55:55;;;;;;;110.43;27.83;;;5.00;99.90;;;;;;5010605;28;20578;-81
2022/01/13 08:58:24;;;;;;;167.73;31.98;;;5.00;99.90;;;;;;5011587;28;20208;-81
2022/01/13 09:00:52;;;;;;;126.65;27.58;;;5.10;99.90;;;;;;4995115;28;20041;-82
2022/01/13 09:03:18;;;;;;;156.60;30.00;;;5.10;99.90;;;;;;5012043;28;20477;-82
2022/01/13 09:05:44;;;;;;;152.52;29.52;;;5.10;99.90;;;;;;4995208;28;20050;-82
2022/01/13 09:08:11;;;;;;;153.23;28.65;;;5.00;99.90;;;;;;5011414;28;20480;-82
2022/01/13 09:10:42;;;;;;;112.85;28.50;;;5.00;99.90;;;;;;4999050;28;20042;-81
2022/01/13 09:13:11;;;;;;;114.95;27.13;;;5.10;99.90;;;;;;5030635;28;20041;-81
2022/01/13 09:15:41;;;;;;;211.63;34.45;;;5.10;99.90;;;;;;5030207;28;20049;-81
2022/01/13 09:18:15;;;;;;;129.40;29.17;;;5.10;99.90;;;;;;5014048;28;20037;-81
2022/01/13 09:20:42;;;;;;;101.97;24.13;;;5.10;99.90;;;;;;5010635;28;20037;-81
2022/01/13 09:23:09;;;;;;;144.68;30.55;;;5.10;99.90;;;;;;5033981;28;20086;-81
2022/01/13 09:25:35;;;;;;;164.75;30.95;;;5.10;99.90;;;;;;5033138;28;20073;-81
2022/01/13 09:28:04;;;;;;;212.50;33.97;;;5.00;99.90;;;;;;5034103;28;20033;-81
2022/01/13 09:30:30;;;;;;;139.82;31.13;;;5.00;99.90;;;;;;5033753;28;20128;-81
2022/01/13 09:32:56;;;;;;;119.65;27.80;;;5.10;99.90;;;;;;5034223;28;20397;-81
2022/01/13 09:35:22;;;;;;;127.93;28.42;;;5.10;99.90;;;;;;5015533;28;20038;-81
2022/01/13 09:37:48;;;;;;;124.57;29.30;;;5.10;99.90;;;;;;5017541;28;20035;-81
2022/01/13 09:40:15;;;;;;;185.77;31.65;;;5.20;99.90;;;;;;5017030;28;20481;-81
2022/01/13 09:42:43;;;;;;;139.00;29.67;;;5.20;99.90;;;;;;5034382;28;20148;-81
2022/01/13 09:45:11;;;;;;;151.65;30.70;;;5.20;99.90;;;;;;5029709;28;20038;-81
2022/01/13 09:47:38;;;;;;;126.50;27.63;;;5.20;99.90;;;;;;5033088;28;20053;-81
2022/01/13 09:50:10;;;;;;;141.48;30.33;;;5.30;99.90;;;;;;5015653;28;20128;-81
2022/01/13 09:52:37;;;;;;;101.83;26.50;;;5.30;99.90;;;;;;5027956;28;20048;-82
2022/01/13 09:55:04;;;;;;;122.05;28.65;;;5.40;99.90;;;;;;5031992;28;20125;-81
2022/01/13 09:57:30;;;;;;;120.25;29.80;;;5.30;99.90;;;;;;5015038;28;20543;-81
2022/01/13 09:59:58;;;;;;;118.00;30.50;;;5.20;99.90;;;;;;5015818;28;20029;-81
2022/01/13 10:02:24;;;;;;;99.18;25.40;;;5.30;99.90;;;;;;5033173;28;20051;-81
2022/01/13 10:04:53;;;;;;;121.13;27.60;;;5.30;99.90;;;;;;5033773;28;20552;-81
2022/01/13 10:07:38;;;;;;;105.88;26.92;;;5.30;99.90;;;;;;5017694;28;20585;-81
2022/01/13 10:10:15;;;;;;;103.07;27.48;;;5.30;99.90;;;;;;5013740;28;20044;-81
2022/01/13 10:12:47;;;;;;;128.90;29.63;;;5.30;99.90;;;;;;5015978;28;20041;-81
2022/01/13 10:17:59;;;;;;;98.03;26.10;;;5.30;99.90;;;;;;5033811;28;19921;-81
2022/01/13 10:20:25;;;;;;;95.03;26.30;;;5.40;99.90;;;;;;5033553;28;20088;-81
2022/01/13 10:22:53;;;;;;;99.03;28.88;;;5.40;99.90;;;;;;5017524;28;20039;-81
2022/01/13 10:25:37;;;;;;;163.80;33.33;;;5.40;99.90;;;;;;5000471;28;20041;-81
2022/01/13 10:28:23;;;;;;;95.05;24.67;;;5.40;99.90;;;;;;5017435;28;20076;-81
2022/01/13 10:30:52;;;;;;;112.90;29.27;;;5.40;99.90;;;;;;5016219;28;20042;-81
2022/01/13 10:33:27;;;;;;;127.70;30.70;;;5.50;99.90;;;;;;5017121;28;20033;-81
2022/01/13 10:36:08;;;;;;;108.70;24.98;;;5.50;99.90;;;;;;5033229;28;20065;-81
2022/01/13 10:38:51;;;;;;;147.70;32.58;;;5.50;99.90;;;;;;5017454;28;20124;-81
2022/01/13 10:41:35;;;;;;;106.20;26.02;;;5.50;99.90;;;;;;5032626;28;20068;-81
2022/01/13 10:44:20;;;;;;;109.75;28.88;;;5.60;99.90;;;;;;5033447;28;20041;-81
2022/01/13 10:47:03;;;;;;;113.25;28.65;;;5.60;99.90;;;;;;5016754;28;20041;-81
2022/01/13 10:49:38;;;;;;;139.50;31.77;;;5.60;99.90;;;;;;5016806;28;20596;-81
2022/01/13 10:52:31;;;;;;;144.45;33.10;;;5.70;99.90;;;;;;5032894;28;20046;-81
2022/01/13 10:55:12;;;;;;;120.70;30.55;;;5.60;99.90;;;;;;5030657;28;20655;-81
2022/01/13 10:57:41;;;;;;;130.48;31.15;;;5.60;99.90;;;;;;5015905;28;20052;-81
2022/01/13 11:00:28;;;;;;;119.90;29.95;;;5.60;99.90;;;;;;5016891;28;20033;-81
2022/01/13 11:03:03;;;;;;;98.13;28.25;;;5.60;99.90;;;;;;5016391;28;20037;-81
2022/01/13 11:05:31;;;;;;;111.15;29.73;;;5.80;99.90;;;;;;5016545;28;20030;-81
2022/01/13 11:07:57;;;;;;;156.38;33.28;;;5.60;99.90;;;;;;5032931;28;20034;-81
2022/01/13 11:10:23;;;;;;;106.38;28.95;;;5.60;99.90;;;;;;5032024;28;20041;-81
2022/01/13 11:12:56;;;;;;;120.10;30.35;;;5.70;99.90;;;;;;4996756;28;20033;-81
2022/01/13 11:15:24;;;;;;;102.25;26.38;;;5.70;99.90;;;;;;4997748;28;20127;-82
2022/01/13 11:17:53;;;;;;;88.25;26.50;;;5.70;99.90;;;;;;5029588;28;20064;-81
2022/01/13 11:20:20;;;;;;;99.90;27.02;;;5.70;99.90;;;;;;5013188;28;20482;-81
2022/01/13 11:22:51;;;;;;;103.18;28.55;;;5.70;99.90;;;;;;4980773;28;20129;-81
2022/01/13 11:25:23;;;;;;;88.15;26.40;;;5.70;99.90;;;;;;5012675;28;20037;-81
2022/01/13 11:27:50;;;;;;;113.45;28.17;;;5.80;99.90;;;;;;5012862;28;20038;-81
2022/01/13 11:30:19;;;;;;;94.22;26.52;;;5.80;99.90;;;;;;5012793;28;20046;-81
2022/01/13 11:32:46;;;;;;;89.60;26.38;;;5.70;99.90;;;;;;5012818;28;20046;-81
2022/01/13 11:35:24;;;;;;;83.53;26.17;;;5.80;99.90;;;;;;5012927;28;20092;-81
2022/01/13 11:37:51;;;;;;;102.03;28.17;;;5.80;99.90;;;;;;5013079;28;20516;-81
2022/01/13 11:40:26;;;;;;;98.72;28.25;;;5.80;99.90;;;;;;4979666;28;20034;-81
2022/01/13 11:42:52;;;;;;;80.63;25.40;;;5.80;99.90;;;;;;5012402;28;20042;-81
2022/01/13 11:45:20;;;;;;;89.35;27.50;;;5.80;99.90;;;;;;4996130;28;20042;-81
2022/01/13 11:47:46;;;;;;;88.95;27.52;;;5.80;99.90;;;;;;5012434;28;20057;-82
2022/01/13 11:50:19;;;;;;;79.07;26.38;;;5.80;99.90;;;;;;5012812;28;20397;-82
2022/01/13 11:52:56;;;;;;;75.00;27.02;;;5.80;99.90;;;;;;5012510;28;20046;-82
2022/01/13 11:55:29;;;;;;;80.50;26.85;;;5.80;99.90;;;;;;4996383;28;20038;-82
2022/01/13 11:58:18;;;;;;;71.05;24.05;;;5.70;99.90;;;;;;5015869;28;20570;-80
2022/01/13 12:00:46;;;;;;;87.03;27.98;;;5.90;99.90;;;;;;5010013;28;20042;-81
2022/01/13 12:03:31;;;;;;;74.75;26.73;;;5.80;99.90;;;;;;5030896;28;20037;-81
2022/01/13 12:05:58;;;;;;;80.57;27.90;;;5.70;99.90;;;;;;5028879;28;20055;-81
2022/01/13 12:08:57;;;;;;;71.72;25.98;;;5.80;99.90;;;;;;5032283;28;20124;-81
2022/01/13 12:11:42;;;;;;;74.50;26.33;;;5.70;99.90;;;;;;5031136;28;20052;-81
2022/01/13 12:14:24;;;;;;;81.82;27.35;;;5.80;99.90;;;;;;5031778;28;20045;-81
2022/01/13 12:16:56;;;;;;;89.95;28.33;;;5.70;99.90;;;;;;5031574;28;20055;-81
2022/01/13 12:19:40;;;;;;;82.38;26.45;;;5.70;99.90;;;;;;5014899;28;20054;-81
2022/01/13 12:22:40;;;;;;;81.03;27.33;;;5.80;99.90;;;;;;5015221;28;20047;-81
2022/01/13 12:25:19;;;;;;;93.40;29.02;;;5.80;99.90;;;;;;5015662;28;20520;-81
2022/01/13 12:27:50;;;;;;;82.03;25.92;;;5.80;99.90;;;;;;4999001;28;20041;-81
2022/01/13 12:30:30;;;;;;;82.83;28.30;;;5.80;99.90;;;;;;5031762;28;20038;-81
2022/01/13 12:32:57;;;;;;;88.18;28.92;;;5.80;99.90;;;;;;5015392;28;20277;-81
2022/01/13 12:35:38;;;;;;;111.05;32.10;;;5.80;99.90;;;;;;5015267;28;20528;-81
2022/01/13 12:38:09;;;;;;;77.38;27.92;;;5.80;99.90;;;;;;5031625;28;20073;-81
2022/01/13 12:40:43;;;;;;;81.35;27.05;;;5.80;99.90;;;;;;5031007;28;20084;-81
2022/01/13 12:43:37;;;;;;;93.13;29.63;;;5.80;99.90;;;;;;5011763;28;20034;-81
2022/01/13 12:46:10;;;;;;;78.03;28.15;;;5.80;99.90;;;;;;5011903;28;20137;-81
2022/01/13 12:48:38;;;;;;;89.15;29.52;;;5.80;99.90;;;;;;5011676;28;20061;-81
2022/01/13 12:51:05;;;;;;;91.60;29.90;;;5.70;99.90;;;;;;5011794;28;20379;-81
2022/01/13 12:53:33;;;;;;;93.38;29.13;;;5.70;99.90;;;;;;5011867;28;20048;-81
2022/01/13 12:56:09;;;;;;;81.70;28.05;;;5.80;99.90;;;;;;4997717;28;20046;-81
2022/01/13 12:58:40;;;;;;;86.85;28.80;;;5.80;99.90;;;;;;5021720;28;20468;-81
2022/01/13 13:01:13;;;;;;;92.63;29.02;;;5.80;99.90;;;;;;5014067;28;20034;-81
2022/01/13 13:03:39;;;;;;;85.07;29.13;;;5.80;99.90;;;;;;5034621;28;20069;-81
2022/01/13 13:06:13;;;;;;;96.88;30.55;;;5.80;99.90;;;;;;4999095;28;20084;-81